createdAt,value
2022-11-17T00:01:08.797Z,100117.50
2022-11-17T00:03:38.604Z,100113.77
2022-11-17T00:06:08.424Z,100118.46
2022-11-17T00:08:38.400Z,100115.04
2022-11-17T00:11:08.473Z,100110.14
2022-11-17T00:13:57.102Z,100112.92
2022-11-17T00:16:27.086Z,100112.67
2022-11-17T00:19:15.451Z,100110.28
2022-11-17T00:21:45.510Z,100111.65
2022-11-17T00:24:18.525Z,100111.66
2022-11-17T00:27:03.462Z,100112.16
2022-11-17T00:29:36.242Z,100108.46
2022-11-17T00:32:36.200Z,100106.05
2022-11-17T00:35:06.912Z,100107.23
2022-11-17T00:38:00.703Z,100100.86
2022-11-17T00:40:30.970Z,100101.30
2022-11-17T00:42:59.023Z,100096.41
2022-11-17T00:45:27.396Z,100098.81
2022-11-17T00:47:56.058Z,100093.60
2022-11-17T00:50:24.505Z,100094.44
2022-11-17T00:52:52.827Z,100095.26
2022-11-17T00:55:21.345Z,100096.13
2022-11-17T00:57:49.771Z,100096.44
2022-11-17T01:00:18.335Z,100093.26
2022-11-17T01:02:46.398Z,100093.03
2022-11-17T01:05:15.296Z,100094.20
2022-11-17T01:07:43.380Z,100097.08
2022-11-17T01:10:11.943Z,100097.34
2022-11-17T01:12:40.222Z,100094.30
2022-11-17T01:15:09.883Z,100096.69
2022-11-17T01:17:37.089Z,100091.48
2022-11-17T01:20:06.672Z,100090.64
2022-11-17T01:22:33.834Z,100090.07
2022-11-17T01:25:05.084Z,100091.68
2022-11-17T01:27:32.041Z,100085.58
2022-11-17T01:30:00.613Z,100081.08
2022-11-17T01:32:29.004Z,100079.33
2022-11-17T01:34:57.433Z,100076.55
2022-11-17T01:37:27.008Z,100076.31
2022-11-17T01:39:54.300Z,100077.05
2022-11-17T01:42:26.318Z,100074.69
2022-11-17T01:45:22.503Z,100071.54
2022-11-17T01:48:04.762Z,100070.60
2022-11-17T01:50:43.228Z,100066.12
2022-11-17T01:53:19.069Z,100061.38
2022-11-17T01:55:58.022Z,100059.88
2022-11-17T01:58:36.479Z,100058.34
2022-11-17T02:01:06.427Z,100060.54
2022-11-17T02:03:38.326Z,100063.17
2022-11-17T02:06:16.394Z,100063.17
2022-11-17T02:08:51.453Z,100066.45
2022-11-17T02:11:22.906Z,100069.99
2022-11-17T02:13:56.233Z,100073.63
2022-11-17T02:16:24.109Z,100072.42
2022-11-17T02:18:52.680Z,100069.30
2022-11-17T02:22:04.157Z,100068.96
2022-11-17T02:25:13.486Z,100072.43
2022-11-17T02:28:26.722Z,100068.77
2022-11-17T02:31:21.528Z,100065.95
2022-11-17T02:34:00.236Z,100064.41
2022-11-17T02:36:46.944Z,100059.88
2022-11-17T02:39:23.546Z,100053.67
2022-11-17T02:41:58.448Z,100046.02
2022-11-17T02:44:46.415Z,100044.09
2022-11-17T02:47:25.271Z,100040.06
2022-11-17T02:50:06.109Z,100043.87
2022-11-17T02:52:36.379Z,100039.52
2022-11-17T02:55:10.701Z,100040.55
2022-11-17T02:57:41.811Z,100035.89
2022-11-17T03:00:20.572Z,100037.06
2022-11-17T03:03:24.886Z,100031.84
2022-11-17T03:06:24.211Z,100026.08
2022-11-17T03:09:12.768Z,100023.69
2022-11-17T03:11:59.236Z,100022.41
2022-11-17T03:15:08.971Z,100022.56
2022-11-17T03:18:51.368Z,100018.77
2022-11-17T03:21:35.074Z,100010.25
2022-11-17T03:24:19.625Z,100010.75
2022-11-17T03:27:06.109Z,100018.39
2022-11-17T03:29:39.170Z,100020.27
2022-11-17T03:32:11.261Z,100023.80
2022-11-17T03:34:57.455Z,100024.04
2022-11-17T03:37:32.674Z,100027.17
2022-11-17T03:40:10.606Z,100024.41
2022-11-17T03:42:52.611Z,100025.98
2022-11-17T03:45:32.018Z,100027.45
2022-11-17T03:48:14.493Z,100024.29
2022-11-17T03:51:06.391Z,100022.91
2022-11-17T03:53:36.039Z,100021.16
2022-11-17T03:56:39.019Z,100019.36
2022-11-17T03:59:44.933Z,100017.64
2022-11-17T04:02:19.250Z,100011.38
2022-11-17T04:05:07.200Z,100011.02
2022-11-17T04:07:47.156Z,100014.70
2022-11-17T04:10:19.621Z,100011.39
2022-11-17T04:13:08.556Z,100010.02
2022-11-17T04:15:56.507Z,100009.16
2022-11-17T04:18:27.120Z,100005.70
2022-11-17T04:20:57.661Z,100004.70
2022-11-17T04:23:28.303Z,100005.44
2022-11-17T04:26:16.733Z,100005.40
2022-11-17T04:28:50.295Z,99999.83
2022-11-17T04:31:24.475Z,99999.03
2022-11-17T04:34:00.125Z,99998.36
2022-11-17T04:36:40.186Z,99992.06
2022-11-17T04:39:12.388Z,99990.88
2022-11-17T04:41:56.779Z,99992.81
2022-11-17T04:44:29.692Z,99988.12
2022-11-17T04:47:02.014Z,99980.83
2022-11-17T04:49:33.268Z,99981.55
2022-11-17T04:52:02.474Z,99982.97
2022-11-17T04:54:32.317Z,99981.61
2022-11-17T04:57:02.181Z,99980.71
2022-11-17T04:59:31.914Z,99978.11
2022-11-17T05:02:05.861Z,99970.45
2022-11-17T05:04:53.665Z,99973.28
2022-11-17T05:07:20.795Z,99972.27
2022-11-17T05:09:48.990Z,99975.23
2022-11-17T05:12:36.475Z,99972.99
2022-11-17T05:15:07.256Z,99974.76
2022-11-17T05:17:36.634Z,99969.89
2022-11-17T05:20:07.122Z,99970.95
2022-11-17T05:22:55.576Z,99963.02
2022-11-17T05:25:22.832Z,99959.68
2022-11-17T05:27:53.449Z,99959.54
2022-11-17T05:30:23.245Z,99957.13
2022-11-17T05:32:53.038Z,99954.91
2022-11-17T05:35:22.921Z,99958.40
2022-11-17T05:37:52.746Z,99958.77
2022-11-17T05:40:22.467Z,99955.45
2022-11-17T05:42:56.992Z,99949.24
2022-11-17T05:45:25.441Z,99948.39
2022-11-17T05:47:52.738Z,99946.85
2022-11-17T05:50:22.670Z,99944.31
2022-11-17T05:52:52.434Z,99947.61
2022-11-17T05:55:22.283Z,99944.48
2022-11-17T05:57:54.250Z,99946.95
2022-11-17T06:00:23.559Z,99947.48
2022-11-17T06:03:01.856Z,99948.57
2022-11-17T06:05:31.127Z,99948.66
2022-11-17T06:07:58.909Z,99947.08
2022-11-17T06:10:28.928Z,99947.81
2022-11-17T06:12:58.637Z,99945.91
2022-11-17T06:15:29.792Z,99935.87
2022-11-17T06:18:13.648Z,99932.79
2022-11-17T06:20:49.785Z,99927.80
2022-11-17T06:23:26.626Z,99925.98
2022-11-17T06:26:00.100Z,99919.03
2022-11-17T06:28:32.563Z,99919.48
2022-11-17T06:31:02.898Z,99920.25
2022-11-17T06:33:34.549Z,99922.00
2022-11-17T06:36:07.507Z,99921.36
2022-11-17T06:38:36.397Z,99925.20
2022-11-17T06:41:08.966Z,99923.06
2022-11-17T06:43:41.952Z,99918.08
2022-11-17T06:46:11.693Z,99911.86
2022-11-17T06:48:40.687Z,99906.02
2022-11-17T06:51:08.607Z,99903.85
2022-11-17T06:53:37.409Z,99898.11
2022-11-17T06:56:09.513Z,99895.19
2022-11-17T06:58:41.308Z,99895.60
2022-11-17T07:01:14.481Z,99890.40
2022-11-17T07:03:43.223Z,99898.83
2022-11-17T07:06:12.619Z,99897.10
2022-11-17T07:08:42.669Z,99895.69
2022-11-17T07:11:16.707Z,99899.71
2022-11-17T07:13:45.537Z,99900.58
2022-11-17T07:16:23.463Z,99902.72
2022-11-17T07:18:53.519Z,99900.77
2022-11-17T07:21:25.310Z,99906.15
2022-11-17T07:23:54.357Z,99904.30
2022-11-17T07:26:21.544Z,99908.99
2022-11-17T07:28:51.270Z,99908.98
2022-11-17T07:31:21.717Z,99908.02
2022-11-17T07:33:53.950Z,99908.38
2022-11-17T07:36:22.867Z,99909.80
2022-11-17T07:38:52.596Z,99905.30
2022-11-17T07:41:22.360Z,99908.98
2022-11-17T07:43:52.154Z,99911.08
2022-11-17T07:46:21.902Z,99909.33
2022-11-17T07:48:54.859Z,99909.20
2022-11-17T07:51:21.759Z,99914.48
2022-11-17T07:53:50.325Z,99912.24
2022-11-17T07:56:18.723Z,99910.55
2022-11-17T07:58:46.980Z,99913.30
2022-11-17T08:01:15.655Z,99911.39
2022-11-17T08:03:46.049Z,99906.71
2022-11-17T08:06:14.251Z,99900.17
2022-11-17T08:08:42.780Z,99903.17
2022-11-17T08:11:12.892Z,99897.50
2022-11-17T08:13:42.845Z,99894.37
2022-11-17T08:16:12.597Z,99888.80
2022-11-17T08:18:40.726Z,99889.55
2022-11-17T08:21:15.022Z,99884.92
2022-11-17T08:23:42.956Z,99877.19
2022-11-17T08:26:12.564Z,99877.46
2022-11-17T08:28:42.673Z,99867.36
2022-11-17T08:31:11.505Z,99870.35
2022-11-17T08:33:39.987Z,99874.45
2022-11-17T08:36:09.881Z,99877.23
2022-11-17T08:38:37.666Z,99877.90
2022-11-17T08:41:08.437Z,99878.48
2022-11-17T08:43:37.553Z,99880.11
2022-11-17T08:46:05.842Z,99877.15
2022-11-17T08:48:34.939Z,99878.89
2022-11-17T08:51:08.794Z,99879.61
2022-11-17T08:53:38.051Z,99883.48
2022-11-17T08:56:10.884Z,99886.61
2022-11-17T08:58:44.858Z,99883.69
2022-11-17T09:01:16.224Z,99885.30
2022-11-17T09:03:46.850Z,99891.09
2022-11-17T09:06:17.791Z,99887.59
2022-11-17T09:08:46.959Z,99885.93
2022-11-17T09:11:16.663Z,99887.30
2022-11-17T09:13:47.016Z,99890.84
2022-11-17T09:16:17.249Z,99891.91
2022-11-17T09:18:46.451Z,99891.20
2022-11-17T09:21:16.510Z,99892.52
2022-11-17T09:23:46.296Z,99890.79
2022-11-17T09:26:16.932Z,99888.98
2022-11-17T09:28:46.482Z,99895.80
2022-11-17T09:31:20.638Z,99896.34
2022-11-17T09:33:48.412Z,99900.14
2022-11-17T09:36:18.444Z,99897.33
2022-11-17T09:38:48.673Z,99902.40
2022-11-17T09:41:39.681Z,99898.56
2022-11-17T09:44:40.866Z,99896.52
2022-11-17T09:48:42.259Z,99891.99
2022-11-17T09:51:11.471Z,99891.79
2022-11-17T09:54:23.461Z,99888.04
2022-11-17T09:56:57.901Z,99887.57
2022-11-17T09:59:32.261Z,99890.96
2022-11-17T10:02:02.064Z,99885.85
2022-11-17T10:04:31.818Z,99883.07
2022-11-17T10:07:03.960Z,99885.32
2022-11-17T10:09:42.242Z,99882.87
2022-11-17T10:12:27.229Z,99879.97
2022-11-17T10:14:56.140Z,99874.95
2022-11-17T10:17:24.295Z,99871.32
2022-11-17T10:19:52.746Z,99870.44
2022-11-17T10:22:41.929Z,99866.73
2022-11-17T10:25:49.008Z,99869.90
2022-11-17T10:28:32.114Z,99861.55
2022-11-17T10:31:12.882Z,99865.24
2022-11-17T10:33:46.858Z,99862.81
2022-11-17T10:36:30.244Z,99854.52
2022-11-17T10:39:01.028Z,99856.33
2022-11-17T10:41:42.666Z,99849.59
2022-11-17T10:44:12.251Z,99849.81
2022-11-17T10:47:02.948Z,99842.88
2022-11-17T10:49:36.486Z,99837.05
2022-11-17T10:52:18.802Z,99830.53
2022-11-17T10:54:49.754Z,99833.08
2022-11-17T10:57:22.362Z,99833.06
2022-11-17T10:59:57.774Z,99835.11
2022-11-17T11:02:33.914Z,99835.33
2022-11-17T11:05:14.038Z,99835.55
2022-11-17T11:07:44.939Z,99832.21
2022-11-17T11:10:34.495Z,99824.38
2022-11-17T11:13:19.569Z,99819.69
2022-11-17T11:15:49.577Z,99819.23
2022-11-17T11:18:21.839Z,99818.52
2022-11-17T11:21:22.301Z,99813.27
2022-11-17T11:24:27.980Z,99809.81
2022-11-17T11:27:02.056Z,99803.62
2022-11-17T11:29:43.558Z,99800.88
2022-11-17T11:32:48.267Z,99796.48
2022-11-17T11:36:15.135Z,99794.27
2022-11-17T11:39:28.903Z,99799.14
2022-11-17T11:42:52.262Z,99786.80
2022-11-17T11:45:49.327Z,99789.34
2022-11-17T11:48:36.944Z,99781.76
2022-11-17T11:51:26.388Z,99785.44
2022-11-17T11:54:23.902Z,99781.81
2022-11-17T11:56:54.705Z,99779.88
2022-11-17T11:59:43.267Z,99776.27
2022-11-17T12:02:11.464Z,99775.39
2022-11-17T12:05:05.504Z,99780.61
2022-11-17T12:08:10.577Z,99777.73
2022-11-17T12:11:00.741Z,99774.80
2022-11-17T12:13:30.866Z,99775.89
2022-11-17T12:16:19.211Z,99771.68
2022-11-17T12:18:48.945Z,99772.22
2022-11-17T12:21:28.994Z,99779.16
2022-11-17T12:24:29.615Z,99777.09
2022-11-17T12:27:34.522Z,99779.46
2022-11-17T12:30:25.915Z,99774.40
2022-11-17T12:32:55.824Z,99772.67
2022-11-17T12:35:32.173Z,99774.10
2022-11-17T12:38:31.236Z,99768.19
2022-11-17T12:40:59.272Z,99764.70
2022-11-17T12:43:29.841Z,99766.08
2022-11-17T12:46:18.719Z,99763.45
2022-11-17T12:49:16.050Z,99764.34
2022-11-17T12:52:00.858Z,99765.44
2022-11-17T12:55:20.355Z,99766.65
2022-11-17T12:58:17.094Z,99761.64
2022-11-17T13:01:30.735Z,99764.45
2022-11-17T13:04:19.086Z,99757.64
2022-11-17T13:07:16.843Z,99759.38
2022-11-17T13:09:59.933Z,99764.59
2022-11-17T13:12:32.537Z,99762.54
2022-11-17T13:15:05.557Z,99761.80
2022-11-17T13:17:42.786Z,99756.73
2022-11-17T13:20:30.657Z,99757.97
2022-11-17T13:23:18.786Z,99755.55
2022-11-17T13:26:28.284Z,99760.57
2022-11-17T13:29:14.337Z,99749.77
2022-11-17T13:31:44.374Z,99748.40
2022-11-17T13:34:19.099Z,99752.35
2022-11-17T13:36:54.909Z,99742.77
2022-11-17T13:39:27.907Z,99745.41
2022-11-17T13:42:02.179Z,99745.05
2022-11-17T13:44:32.911Z,99745.02
2022-11-17T13:47:47.699Z,99744.64
2022-11-17T13:50:37.531Z,99751.40
2022-11-17T13:53:26.200Z,99751.20
2022-11-17T13:55:56.033Z,99749.61
2022-11-17T13:58:40.850Z,99746.11
2022-11-17T14:01:13.789Z,99748.55
2022-11-17T14:03:43.774Z,99750.05
2022-11-17T14:06:14.505Z,99744.46
2022-11-17T14:09:04.594Z,99742.34
2022-11-17T14:11:34.453Z,99738.82
2022-11-17T14:14:14.319Z,99736.04
2022-11-17T14:16:45.461Z,99739.29
2022-11-17T14:19:15.240Z,99738.21
2022-11-17T14:22:30.526Z,99734.89
2022-11-17T14:25:01.343Z,99729.61
2022-11-17T14:27:31.796Z,99740.73
2022-11-17T14:30:01.733Z,99745.17
2022-11-17T14:32:32.441Z,99739.63
2022-11-17T14:35:02.252Z,99737.27
2022-11-17T14:37:32.555Z,99738.95
2022-11-17T14:40:05.075Z,99742.39
2022-11-17T14:42:36.338Z,99742.73
2022-11-17T14:45:08.988Z,99743.73
2022-11-17T14:47:38.753Z,99742.17
2022-11-17T14:50:18.356Z,99742.34
2022-11-17T14:52:48.184Z,99737.98
2022-11-17T14:55:17.996Z,99738.32
2022-11-17T14:57:48.957Z,99743.00
2022-11-17T15:00:20.883Z,99741.45
2022-11-17T15:02:51.192Z,99741.54
2022-11-17T15:05:20.993Z,99739.22
2022-11-17T15:07:50.866Z,99739.25
2022-11-17T15:10:20.685Z,99739.08
2022-11-17T15:12:50.549Z,99738.56
2022-11-17T15:15:19.713Z,99734.57
2022-11-17T15:17:47.326Z,99731.96
2022-11-17T15:20:18.995Z,99736.59
2022-11-17T15:22:52.482Z,99739.08
2022-11-17T15:25:22.248Z,99739.92
2022-11-17T15:27:54.131Z,99743.05
2022-11-17T15:30:23.964Z,99745.85
2022-11-17T15:32:53.737Z,99744.39
2022-11-17T15:35:24.506Z,99741.59
2022-11-17T15:37:54.574Z,99736.08
2022-11-17T15:40:24.464Z,99743.38
2022-11-17T15:42:54.297Z,99734.38
2022-11-17T15:45:24.247Z,99736.30
2022-11-17T15:47:53.998Z,99739.00
2022-11-17T15:50:23.764Z,99738.64
2022-11-17T15:53:04.165Z,99742.26
2022-11-17T15:55:35.358Z,99743.92
2022-11-17T15:58:05.087Z,99739.95
2022-11-17T16:00:35.417Z,99735.40
2022-11-17T16:03:06.173Z,99738.14
2022-11-17T16:05:35.942Z,99739.17
2022-11-17T16:08:05.849Z,99736.77
2022-11-17T16:10:35.699Z,99732.90
2022-11-17T16:13:05.426Z,99734.62
2022-11-17T16:15:35.218Z,99733.52
2022-11-17T16:18:05.126Z,99735.45
2022-11-17T16:20:35.054Z,99730.09
2022-11-17T16:23:04.953Z,99730.52
2022-11-17T16:25:41.295Z,99731.20
2022-11-17T16:28:13.212Z,99732.77
2022-11-17T16:30:42.987Z,99730.69
2022-11-17T16:33:16.449Z,99727.86
2022-11-17T16:35:46.184Z,99730.36
2022-11-17T16:38:17.358Z,99733.97
2022-11-17T16:40:47.182Z,99731.12
2022-11-17T16:43:17.006Z,99728.84
2022-11-17T16:45:46.802Z,99724.30
2022-11-17T16:48:16.595Z,99727.07
2022-11-17T16:50:45.043Z,99726.73
2022-11-17T16:53:15.448Z,99727.73
2022-11-17T16:55:44.971Z,99724.52
2022-11-17T16:58:13.392Z,99722.77
2022-11-17T17:00:41.841Z,99721.75
2022-11-17T17:03:10.252Z,99726.37
2022-11-17T17:05:40.326Z,99726.08
2022-11-17T17:08:10.227Z,99730.05
2022-11-17T17:10:40.052Z,99729.87
2022-11-17T17:13:10.132Z,99732.67
2022-11-17T17:15:40.093Z,99731.98
2022-11-17T17:18:09.989Z,99736.35
2022-11-17T17:20:39.779Z,99733.73
2022-11-17T17:23:09.581Z,99729.36
2022-11-17T17:25:39.640Z,99727.87
2022-11-17T17:28:09.574Z,99725.54
2022-11-17T17:30:39.483Z,99724.71
2022-11-17T17:33:09.362Z,99716.13
2022-11-17T17:35:36.350Z,99720.77
2022-11-17T17:38:05.844Z,99723.82
2022-11-17T17:40:37.987Z,99731.60
2022-11-17T17:43:07.791Z,99731.84
2022-11-17T17:45:40.274Z,99734.41
2022-11-17T17:48:10.066Z,99737.27
2022-11-17T17:50:41.447Z,99744.55
2022-11-17T17:53:11.591Z,99743.88
2022-11-17T17:55:41.993Z,99736.61
2022-11-17T17:58:12.517Z,99734.14
2022-11-17T18:00:42.380Z,99741.06
2022-11-17T18:03:12.295Z,99743.74
2022-11-17T18:05:42.149Z,99740.59
2022-11-17T18:08:12.379Z,99741.19
2022-11-17T18:10:42.245Z,99736.83
2022-11-17T18:13:12.109Z,99732.35
2022-11-17T18:15:42.402Z,99738.05
2022-11-17T18:18:12.193Z,99742.72
2022-11-17T18:20:40.479Z,99742.02
2022-11-17T18:23:08.953Z,99742.50
2022-11-17T18:25:37.502Z,99738.46
2022-11-17T18:28:05.844Z,99741.88
2022-11-17T18:30:34.204Z,99744.79
2022-11-17T18:33:03.254Z,99748.05
2022-11-17T18:35:31.009Z,99746.07
2022-11-17T18:38:01.487Z,99749.51
2022-11-17T18:40:31.235Z,99749.26
2022-11-17T18:43:02.325Z,99750.96
2022-11-17T18:45:32.368Z,99751.61
2022-11-17T18:48:04.754Z,99755.00
2022-11-17T18:50:47.516Z,99751.73
2022-11-17T18:53:24.475Z,99754.77
2022-11-17T18:56:19.138Z,99754.59
2022-11-17T18:58:50.027Z,99755.00
2022-11-17T19:01:23.600Z,99757.67
2022-11-17T19:03:56.677Z,99757.94
2022-11-17T19:06:26.834Z,99756.23
2022-11-17T19:08:59.801Z,99761.50
2022-11-17T19:11:32.695Z,99757.20
2022-11-17T19:14:04.181Z,99759.88
2022-11-17T19:16:42.581Z,99755.29
2022-11-17T19:19:15.160Z,99754.00
2022-11-17T19:21:45.459Z,99756.77
2022-11-17T19:24:15.664Z,99752.02
2022-11-17T19:26:45.919Z,99755.46
2022-11-17T19:29:17.556Z,99756.99
2022-11-17T19:31:47.961Z,99755.21
2022-11-17T19:34:17.041Z,99761.34
2022-11-17T19:36:47.327Z,99759.20
2022-11-17T19:39:17.472Z,99760.45
2022-11-17T19:41:47.745Z,99756.41
2022-11-17T19:44:17.356Z,99762.32
2022-11-17T19:46:47.361Z,99760.06
2022-11-17T19:49:17.477Z,99761.58
2022-11-17T19:51:47.303Z,99764.20
2022-11-17T19:54:17.203Z,99760.87
2022-11-17T19:56:48.381Z,99760.30
2022-11-17T19:59:16.991Z,99767.70
2022-11-17T20:01:48.975Z,99766.52
2022-11-17T20:04:17.532Z,99768.55
2022-11-17T20:06:50.853Z,99772.61
2022-11-17T20:09:17.946Z,99774.41
2022-11-17T20:11:48.007Z,99773.52
2022-11-17T20:14:18.135Z,99777.71
2022-11-17T20:16:47.894Z,99778.70
2022-11-17T20:19:17.940Z,99783.52
2022-11-17T20:21:47.971Z,99782.11
2022-11-17T20:24:16.422Z,99783.33
2022-11-17T20:26:47.084Z,99781.53
2022-11-17T20:29:16.445Z,99782.58
2022-11-17T20:31:44.606Z,99782.06
2022-11-17T20:34:13.162Z,99783.69
2022-11-17T20:36:41.327Z,99784.96
2022-11-17T20:39:09.843Z,99786.64
2022-11-17T20:41:38.260Z,99787.05
2022-11-17T20:44:23.631Z,99784.31
2022-11-17T20:46:55.014Z,99778.74
2022-11-17T20:49:24.984Z,99780.93
2022-11-17T20:51:55.477Z,99779.80
2022-11-17T20:54:49.977Z,99782.60
2022-11-17T20:57:18.686Z,99779.77
2022-11-17T20:59:50.508Z,99782.40
2022-11-17T21:02:18.256Z,99779.55
2022-11-17T21:04:48.151Z,99784.55
2022-11-17T21:07:18.152Z,99784.34
2022-11-17T21:09:48.112Z,99790.46
2022-11-17T21:12:18.686Z,99789.69
2022-11-17T21:14:47.863Z,99795.86
2022-11-17T21:17:36.307Z,99796.88
2022-11-17T21:20:07.079Z,99798.13
2022-11-17T21:22:36.578Z,99798.50
2022-11-17T21:25:06.920Z,99803.98
2022-11-17T21:27:36.788Z,99801.75
2022-11-17T21:30:07.672Z,99800.14
2022-11-17T21:32:37.045Z,99805.64
2022-11-17T21:35:08.134Z,99802.66
2022-11-17T21:37:37.264Z,99808.84
2022-11-17T21:40:06.707Z,99807.39
2022-11-17T21:42:33.898Z,99806.56
2022-11-17T21:45:02.305Z,99808.79
2022-11-17T21:47:30.697Z,99805.95
2022-11-17T21:49:59.157Z,99810.95
2022-11-17T21:52:27.502Z,99809.98
2022-11-17T21:54:55.909Z,99810.30
2022-11-17T21:57:24.373Z,99820.14
2022-11-17T21:59:52.768Z,99820.16
2022-11-17T22:02:22.535Z,99821.23
2022-11-17T22:04:49.643Z,99813.23
2022-11-17T22:07:18.098Z,99812.70
2022-11-17T22:09:46.580Z,99814.42
2022-11-17T22:12:16.356Z,99818.45
2022-11-17T22:14:43.466Z,99824.49
2022-11-17T22:17:11.770Z,99826.20
2022-11-17T22:19:40.039Z,99823.39
2022-11-17T22:22:08.663Z,99821.45
2022-11-17T22:24:39.549Z,99818.56
2022-11-17T22:27:08.329Z,99823.54
2022-11-17T22:29:36.789Z,99821.27
2022-11-17T22:32:05.367Z,99823.88
2022-11-17T22:34:33.532Z,99823.85
2022-11-17T22:37:02.181Z,99829.33
2022-11-17T22:39:31.117Z,99831.42
2022-11-17T22:41:58.869Z,99829.80
2022-11-17T22:44:27.327Z,99828.75
2022-11-17T22:46:55.783Z,99829.60
2022-11-17T22:49:24.127Z,99836.80
2022-11-17T22:52:04.690Z,99844.60
2022-11-17T22:54:35.385Z,99846.34
2022-11-17T22:57:05.118Z,99846.28
2022-11-17T22:59:34.945Z,99843.66
2022-11-17T23:02:04.752Z,99840.17
2022-11-17T23:04:34.474Z,99836.61
2022-11-17T23:07:04.441Z,99839.15
2022-11-17T23:09:34.310Z,99839.13
2022-11-17T23:12:04.281Z,99841.33
2022-11-17T23:14:34.042Z,99844.70
2022-11-17T23:17:03.878Z,99841.05
2022-11-17T23:19:33.709Z,99841.45
2022-11-17T23:22:03.514Z,99834.17
2022-11-17T23:24:33.306Z,99831.81
2022-11-17T23:27:03.794Z,99827.91
2022-11-17T23:29:32.836Z,99835.48
2022-11-17T23:32:02.559Z,99839.31
2022-11-17T23:34:32.409Z,99846.73
2022-11-17T23:37:03.866Z,99853.26
2022-11-17T23:39:31.833Z,99853.95
2022-11-17T23:42:01.711Z,99856.47
2022-11-17T23:44:31.628Z,99864.73
2022-11-17T23:46:59.917Z,99873.40
2022-11-17T23:49:28.945Z,99876.63
2022-11-17T23:51:56.805Z,99879.90
2022-11-17T23:54:25.197Z,99879.60
2022-11-17T23:56:53.691Z,99879.33
2022-11-17T23:59:21.982Z,99874.93
